Airfield :
LOGIN :

Register | Disclaimer

   EN    FR    IT 

 










Legend :    VFR   Marginal VFR   IFR   Intensive IFR   Very Intensive IFR
Visi :
Ceiling :
>= 8 km
>= 3000ft
5 to 8 km
1000 to 3000 ft
1500m to 5 km
500 to 1000 ft
800 to 1500m
200 to 500 ft
< 800m
< 200 ft
Symbols :   Thunderstorms  Fog  Heavy snow  Heavy precipitations  Wind > 20 kt
SIGMETs :     Misc.  Thunderstorms  Icing  Turbulence  Mountain Waves  Volcanic Ashes






- Airport Elevation : 39 ft
- IATA code : CTA


LICC - Catania Fontanarossa

CURRENT METAR :
  • 271820Z 07020KT 9999 -DZ SCT070 SCT100 16/13 Q1017

EXPIRED METARs :
  • 271750Z 07019KT 9999 -RA BKN080 15/14 Q1017
  • 271720Z 07019KT 9999 -RA BKN070 16/13 Q1017
  • 271650Z 07019KT 9999 BKN070 16/14 Q1017
  • 271620Z 07019KT 9999 BKN070 16/14 Q1016
  • 271550Z 07017KT 9999 BKN060 16/13 Q1016

TAF TAF LICC
Valid from the 27 at 18:00 until the 28 at 18:00 UTC


271700Z 2718/2818 06012KT 9999 BKN025
BECMG 2720/2722 VRB05KT
BECMG 2810/2812 06010KT



MET'MAP, your aeronautical weather chart ! - Copyright ORBIFLY December 2007 - Disclaimer

ORBIFLY MET'MAP TEAM :

Programming & Development : Alexandra Zaïnal
Original concept : Baudouin d'Aumeries
Technical & hardware support : Manuel Goepfert
Assistance : Marc-Olivier Méhu




SOURCES & CREDITS :

   NOAA